sensor_id;sensor_type;location;lat;lon;timestamp;pressure;altitude;pressure_sealevel;temperature;humidity
21902;BME280;11115;46.038;14.612;2024-03-23T00:54:22;98149.69;;;8.87;100.00
21902;BME280;11115;46.038;14.612;2024-03-23T00:56:53;98146.38;;;8.99;100.00
21902;BME280;11115;46.038;14.612;2024-03-23T00:59:20;98147.84;;;9.10;100.00
21902;BME280;11115;46.038;14.612;2024-03-23T01:01:55;98133.84;;;9.06;100.00
21902;BME280;11115;46.038;14.612;2024-03-23T01:04:27;98137.22;;;8.90;100.00
21902;BME280;11115;46.038;14.612;2024-03-23T01:06:55;98132.00;;;8.88;100.00
21902;BME280;11115;46.038;14.612;2024-03-23T01:09:21;98140.94;;;8.66;100.00
21902;BME280;11115;46.038;14.612;2024-03-23T01:11:52;98122.94;;;8.41;100.00
21902;BME280;11115;46.038;14.612;2024-03-23T01:14:20;98123.97;;;8.45;100.00
21902;BME280;11115;46.038;14.612;2024-03-23T01:16:59;98082.56;;;8.18;100.00
21902;BME280;11115;46.038;14.612;2024-03-23T01:19:26;98116.94;;;8.39;100.00
21902;BME280;11115;46.038;14.612;2024-03-23T01:21:59;98118.19;;;8.28;100.00
21902;BME280;11115;46.038;14.612;2024-03-23T01:24:30;98123.19;;;8.26;100.00
21902;BME280;11115;46.038;14.612;2024-03-23T01:27:03;98126.81;;;8.40;100.00
21902;BME280;11115;46.038;14.612;2024-03-23T01:29:33;98113.91;;;8.22;100.00
21902;BME280;11115;46.038;14.612;2024-03-23T01:32:01;98116.75;;;8.17;100.00
21902;BME280;11115;46.038;14.612;2024-03-23T01:34:28;98118.06;;;8.19;100.00
21902;BME280;11115;46.038;14.612;2024-03-23T01:37:09;98121.31;;;8.40;100.00
21902;BME280;11115;46.038;14.612;2024-03-23T01:39:52;98097.16;;;8.18;100.00
21902;BME280;11115;46.038;14.612;2024-03-23T01:42:19;98118.38;;;8.18;100.00
21902;BME280;11115;46.038;14.612;2024-03-23T01:44:50;98115.63;;;8.18;100.00
21902;BME280;11115;46.038;14.612;2024-03-23T01:47:18;98106.34;;;8.28;100.00
21902;BME280;11115;46.038;14.612;2024-03-23T01:49:49;98097.34;;;8.22;100.00
21902;BME280;11115;46.038;14.612;2024-03-23T01:52:17;98107.16;;;8.14;100.00
21902;BME280;11115;46.038;14.612;2024-03-23T01:54:47;98094.88;;;8.07;100.00
21902;BME280;11115;46.038;14.612;2024-03-23T01:57:15;98091.84;;;8.22;100.00
21902;BME280;11115;46.038;14.612;2024-03-23T01:59:49;98099.19;;;8.27;100.00
21902;BME280;11115;46.038;14.612;2024-03-23T02:02:25;98085.16;;;7.96;100.00
21902;BME280;11115;46.038;14.612;2024-03-23T02:04:58;98081.28;;;7.97;100.00
21902;BME280;11115;46.038;14.612;2024-03-23T02:07:25;98044.63;;;7.82;100.00
21902;BME280;11115;46.038;14.612;2024-03-23T02:09:57;98051.75;;;7.83;100.00
21902;BME280;11115;46.038;14.612;2024-03-23T02:12:27;98075.69;;;8.02;100.00
21902;BME280;11115;46.038;14.612;2024-03-23T02:14:55;98050.47;;;7.95;100.00
21902;BME280;11115;46.038;14.612;2024-03-23T02:17:31;98065.69;;;8.06;100.00
21902;BME280;11115;46.038;14.612;2024-03-23T02:19:59;98059.56;;;8.09;100.00
21902;BME280;11115;46.038;14.612;2024-03-23T02:22:38;98036.34;;;7.82;100.00
21902;BME280;11115;46.038;14.612;2024-03-23T02:25:13;98053.56;;;7.74;100.00
21902;BME280;11115;46.038;14.612;2024-03-23T02:27:40;98049.53;;;7.85;100.00
21902;BME280;11115;46.038;14.612;2024-03-23T02:30:12;98044.41;;;7.79;100.00
21902;BME280;11115;46.038;14.612;2024-03-23T02:32:38;98035.78;;;7.67;100.00
21902;BME280;11115;46.038;14.612;2024-03-23T02:35:09;98047.00;;;7.70;100.00
21902;BME280;11115;46.038;14.612;2024-03-23T02:37:36;98031.75;;;7.45;100.00
21902;BME280;11115;46.038;14.612;2024-03-23T02:40:08;98048.63;;;7.57;100.00
21902;BME280;11115;46.038;14.612;2024-03-23T02:42:37;98047.22;;;7.41;100.00
21902;BME280;11115;46.038;14.612;2024-03-23T02:45:10;98047.75;;;7.43;100.00
21902;BME280;11115;46.038;14.612;2024-03-23T02:47:45;98042.44;;;7.47;100.00
21902;BME280;11115;46.038;14.612;2024-03-23T02:50:13;98044.56;;;7.17;100.00
21902;BME280;11115;46.038;14.612;2024-03-23T02:52:43;98038.38;;;7.07;100.00
21902;BME280;11115;46.038;14.612;2024-03-23T02:55:18;98040.22;;;7.11;100.00
21902;BME280;11115;46.038;14.612;2024-03-23T02:57:50;98041.13;;;7.25;100.00
21902;BME280;11115;46.038;14.612;2024-03-23T03:00:23;98030.03;;;7.30;100.00
21902;BME280;11115;46.038;14.612;2024-03-23T03:02:50;98030.72;;;7.22;100.00
21902;BME280;11115;46.038;14.612;2024-03-23T03:05:18;98040.75;;;7.32;100.00
21902;BME280;11115;46.038;14.612;2024-03-23T03:07:47;98036.44;;;7.45;100.00
21902;BME280;11115;46.038;14.612;2024-03-23T03:10:20;98037.63;;;7.39;100.00
21902;BME280;11115;46.038;14.612;2024-03-23T03:12:50;98031.75;;;7.26;100.00
21902;BME280;11115;46.038;14.612;2024-03-23T03:15:18;98023.72;;;7.30;100.00
21902;BME280;11115;46.038;14.612;2024-03-23T03:17:49;97958.19;;;6.81;100.00
21902;BME280;11115;46.038;14.612;2024-03-23T03:20:20;98007.22;;;7.11;100.00
21902;BME280;11115;46.038;14.612;2024-03-23T03:22:51;98022.06;;;6.73;100.00
21902;BME280;11115;46.038;14.612;2024-03-23T03:25:25;98006.56;;;7.00;100.00
21902;BME280;11115;46.038;14.612;2024-03-23T03:27:54;97998.41;;;6.95;100.00
21902;BME280;11115;46.038;14.612;2024-03-23T03:30:26;97998.75;;;6.89;100.00
21902;BME280;11115;46.038;14.612;2024-03-23T03:32:56;98013.28;;;6.94;100.00
21902;BME280;11115;46.038;14.612;2024-03-23T03:35:24;98004.44;;;6.74;100.00
21902;BME280;11115;46.038;14.612;2024-03-23T03:37:50;98012.56;;;6.84;100.00
21902;BME280;11115;46.038;14.612;2024-03-23T03:40:20;97994.94;;;6.66;100.00
21902;BME280;11115;46.038;14.612;2024-03-23T03:42:50;97990.88;;;6.63;100.00
21902;BME280;11115;46.038;14.612;2024-03-23T03:45:17;98009.00;;;6.83;100.00
21902;BME280;11115;46.038;14.612;2024-03-23T03:47:45;98007.50;;;6.72;100.00
21902;BME280;11115;46.038;14.612;2024-03-23T03:50:14;98013.00;;;6.72;100.00
21902;BME280;11115;46.038;14.612;2024-03-23T03:52:44;98000.13;;;6.49;100.00
21902;BME280;11115;46.038;14.612;2024-03-23T03:55:14;98002.41;;;6.42;100.00
21902;BME280;11115;46.038;14.612;2024-03-23T03:57:40;97974.59;;;6.24;100.00
21902;BME280;11115;46.038;14.612;2024-03-23T04:00:10;97995.81;;;6.43;100.00
21902;BME280;11115;46.038;14.612;2024-03-23T04:02:41;98002.72;;;6.40;100.00
21902;BME280;11115;46.038;14.612;2024-03-23T04:05:08;97993.84;;;6.67;100.00
21902;BME280;11115;46.038;14.612;2024-03-23T04:07:41;97988.78;;;6.74;100.00
21902;BME280;11115;46.038;14.612;2024-03-23T04:10:08;97983.44;;;6.64;100.00
21902;BME280;11115;46.038;14.612;2024-03-23T04:12:44;97997.72;;;6.85;100.00
21902;BME280;11115;46.038;14.612;2024-03-23T04:15:10;97978.91;;;6.73;100.00
21902;BME280;11115;46.038;14.612;2024-03-23T04:17:49;97994.94;;;6.66;100.00
21902;BME280;11115;46.038;14.612;2024-03-23T04:20:21;97993.72;;;6.53;100.00
21902;BME280;11115;46.038;14.612;2024-03-23T04:22:52;97990.88;;;6.63;100.00
21902;BME280;11115;46.038;14.612;2024-03-23T04:25:20;97989.31;;;6.57;100.00
21902;BME280;11115;46.038;14.612;2024-03-23T04:27:51;97987.66;;;6.56;100.00
21902;BME280;11115;46.038;14.612;2024-03-23T04:30:19;97974.88;;;6.47;100.00
21902;BME280;11115;46.038;14.612;2024-03-23T04:32:57;97986.09;;;6.50;100.00
21902;BME280;11115;46.038;14.612;2024-03-23T04:35:27;97971.75;;;6.53;100.00
21902;BME280;11115;46.038;14.612;2024-03-23T04:38:01;97991.22;;;6.57;100.00
21902;BME280;11115;46.038;14.612;2024-03-23T04:40:34;97987.28;;;6.44;100.00
21902;BME280;11115;46.038;14.612;2024-03-23T04:43:15;97983.66;;;6.25;100.00
21902;BME280;11115;46.038;14.612;2024-03-23T04:45:54;97992.41;;;6.27;100.00
21902;BME280;11115;46.038;14.612;2024-03-23T04:48:38;97989.38;;;6.28;100.00
21902;BME280;11115;46.038;14.612;2024-03-23T04:51:24;97979.50;;;6.03;100.00
21902;BME280;11115;46.038;14.612;2024-03-23T04:53:50;97999.69;;;5.89;100.00
21902;BME280;11115;46.038;14.612;2024-03-23T04:56:21;97992.28;;;6.13;100.00
21902;BME280;11115;46.038;14.612;2024-03-23T04:59:05;97974.16;;;5.88;100.00
21902;BME280;11115;46.038;14.612;2024-03-23T05:01:38;98004.00;;;6.00;100.00
21902;BME280;11115;46.038;14.612;2024-03-23T05:04:10;97998.22;;;6.25;100.00
21902;BME280;11115;46.038;14.612;2024-03-23T05:06:45;97997.25;;;6.11;100.00
21902;BME280;11115;46.038;14.612;2024-03-23T05:09:17;97993.25;;;6.03;100.00
21902;BME280;11115;46.038;14.612;2024-03-23T05:11:45;97999.19;;;6.11;100.00
21902;BME280;11115;46.038;14.612;2024-03-23T05:14:14;97978.00;;;5.58;100.00
21902;BME280;11115;46.038;14.612;2024-03-23T05:16:46;97977.00;;;5.49;100.00
21902;BME280;11115;46.038;14.612;2024-03-23T05:19:16;98005.13;;;5.65;100.00
21902;BME280;11115;46.038;14.612;2024-03-23T05:21:44;97993.22;;;5.74;100.00
21902;BME280;11115;46.038;14.612;2024-03-23T05:24:13;97990.38;;;5.85;100.00
21902;BME280;11115;46.038;14.612;2024-03-23T05:26:39;97992.38;;;5.79;100.00
21902;BME280;11115;46.038;14.612;2024-03-23T05:29:09;97982.50;;;6.07;100.00
21902;BME280;11115;46.038;14.612;2024-03-23T05:31:40;97983.94;;;6.23;100.00
21902;BME280;11115;46.038;14.612;2024-03-23T05:34:11;97956.22;;;6.01;100.00
21902;BME280;11115;46.038;14.612;2024-03-23T05:36:39;97979.34;;;6.19;100.00
21902;BME280;11115;46.038;14.612;2024-03-23T05:39:07;97983.25;;;6.36;100.00
21902;BME280;11115;46.038;14.612;2024-03-23T05:41:37;97981.31;;;6.37;100.00
21902;BME280;11115;46.038;14.612;2024-03-23T05:44:08;97969.75;;;6.40;100.00
21902;BME280;11115;46.038;14.612;2024-03-23T05:46:39;97969.00;;;6.53;100.00
21902;BME280;11115;46.038;14.612;2024-03-23T05:49:15;97972.94;;;6.47;100.00
21902;BME280;11115;46.038;14.612;2024-03-23T05:51:43;97973.81;;;6.43;100.00
21902;BME280;11115;46.038;14.612;2024-03-23T05:54:10;97972.25;;;6.55;100.00
21902;BME280;11115;46.038;14.612;2024-03-23T05:56:39;97974.78;;;6.52;100.00
21902;BME280;11115;46.038;14.612;2024-03-23T05:59:12;97969.31;;;6.70;100.00
21902;BME280;11115;46.038;14.612;2024-03-23T06:01:51;97954.75;;;6.70;100.00
21902;BME280;11115;46.038;14.612;2024-03-23T06:04:20;97966.06;;;6.68;100.00
21902;BME280;11115;46.038;14.612;2024-03-23T06:07:00;97964.78;;;6.61;100.00
21902;BME280;11115;46.038;14.612;2024-03-23T06:09:26;97973.19;;;6.69;100.00
21902;BME280;11115;46.038;14.612;2024-03-23T06:11:57;97959.50;;;6.64;100.00
21902;BME280;11115;46.038;14.612;2024-03-23T06:14:25;97966.66;;;6.84;100.00
21902;BME280;11115;46.038;14.612;2024-03-23T06:17:00;97965.41;;;6.77;100.00
21902;BME280;11115;46.038;14.612;2024-03-23T06:19:27;97963.09;;;6.65;100.00
21902;BME280;11115;46.038;14.612;2024-03-23T06:22:05;97964.78;;;6.61;100.00
21902;BME280;11115;46.038;14.612;2024-03-23T06:24:41;97965.22;;;6.49;100.00
21902;BME280;11115;46.038;14.612;2024-03-23T06:27:17;97934.53;;;6.42;100.00
21902;BME280;11115;46.038;14.612;2024-03-23T06:29:44;97956.44;;;6.47;100.00
21902;BME280;11115;46.038;14.612;2024-03-23T06:32:16;97959.22;;;6.85;100.00
21902;BME280;11115;46.038;14.612;2024-03-23T06:34:46;97956.84;;;6.97;100.00
21902;BME280;11115;46.038;14.612;2024-03-23T06:37:15;97959.13;;;7.09;100.00
21902;BME280;11115;46.038;14.612;2024-03-23T06:39:50;97954.56;;;7.37;100.00
21902;BME280;11115;46.038;14.612;2024-03-23T06:42:20;97955.72;;;7.49;100.00
21902;BME280;11115;46.038;14.612;2024-03-23T06:44:52;97952.91;;;7.68;100.00
21902;BME280;11115;46.038;14.612;2024-03-23T06:47:19;97897.03;;;7.54;100.00
21902;BME280;11115;46.038;14.612;2024-03-23T06:49:48;97954.75;;;7.86;100.00
21902;BME280;11115;46.038;14.612;2024-03-23T06:52:16;97925.63;;;7.99;100.00
21902;BME280;11115;46.038;14.612;2024-03-23T06:54:47;97939.16;;;8.09;100.00
21902;BME280;11115;46.038;14.612;2024-03-23T06:57:16;97888.47;;;7.97;100.00
21902;BME280;11115;46.038;14.612;2024-03-23T06:59:52;97930.13;;;8.50;100.00
21902;BME280;11115;46.038;14.612;2024-03-23T07:02:20;97946.22;;;8.70;100.00
21902;BME280;11115;46.038;14.612;2024-03-23T07:04:51;97938.91;;;8.88;100.00
21902;BME280;11115;46.038;14.612;2024-03-23T07:07:19;97939.97;;;9.01;100.00
21902;BME280;11115;46.038;14.612;2024-03-23T07:09:50;97938.63;;;9.12;100.00
21902;BME280;11115;46.038;14.612;2024-03-23T07:12:18;97941.78;;;9.05;100.00
21902;BME280;11115;46.038;14.612;2024-03-23T07:14:59;97938.16;;;9.41;100.00
21902;BME280;11115;46.038;14.612;2024-03-23T07:17:26;97934.06;;;9.61;100.00
21902;BME280;11115;46.038;14.612;2024-03-23T07:19:56;97931.53;;;10.04;100.00
21902;BME280;11115;46.038;14.612;2024-03-23T07:22:22;97928.09;;;10.29;100.00
21902;BME280;11115;46.038;14.612;2024-03-23T07:24:55;97930.25;;;10.58;100.00
21902;BME280;11115;46.038;14.612;2024-03-23T07:27:25;97924.63;;;10.89;100.00
21902;BME280;11115;46.038;14.612;2024-03-23T07:30:01;97925.63;;;11.19;100.00
21902;BME280;11115;46.038;14.612;2024-03-23T07:32:31;97920.69;;;11.51;100.00
21902;BME280;11115;46.038;14.612;2024-03-23T07:35:02;97920.94;;;11.75;100.00
21902;BME280;11115;46.038;14.612;2024-03-23T07:37:33;97916.38;;;11.97;100.00
21902;BME280;11115;46.038;14.612;2024-03-23T07:40:10;97924.59;;;12.14;100.00
21902;BME280;11115;46.038;14.612;2024-03-23T07:42:38;97912.72;;;12.43;100.00
21902;BME280;11115;46.038;14.612;2024-03-23T07:45:08;97892.78;;;12.70;100.00
21902;BME280;11115;46.038;14.612;2024-03-23T07:47:37;97899.81;;;13.18;100.00
21902;BME280;11115;46.038;14.612;2024-03-23T07:50:08;97898.03;;;13.34;100.00
21902;BME280;11115;46.038;14.612;2024-03-23T07:52:41;97892.25;;;13.40;100.00
21902;BME280;11115;46.038;14.612;2024-03-23T07:55:10;97900.88;;;13.59;100.00
21902;BME280;11115;46.038;14.612;2024-03-23T07:57:42;97897.53;;;13.53;100.00
21902;BME280;11115;46.038;14.612;2024-03-23T08:00:11;97883.38;;;13.91;100.00
21902;BME280;11115;46.038;14.612;2024-03-23T08:02:41;97879.88;;;13.94;100.00
21902;BME280;11115;46.038;14.612;2024-03-23T08:05:13;97876.97;;;14.03;100.00
21902;BME280;11115;46.038;14.612;2024-03-23T08:07:43;97887.44;;;14.31;100.00
21902;BME280;11115;46.038;14.612;2024-03-23T08:10:12;97863.78;;;14.37;100.00
21902;BME280;11115;46.038;14.612;2024-03-23T08:12:47;97863.22;;;14.68;100.00
21902;BME280;11115;46.038;14.612;2024-03-23T08:15:16;97868.16;;;14.86;100.00
21902;BME280;11115;46.038;14.612;2024-03-23T08:17:46;97856.41;;;14.93;100.00
21902;BME280;11115;46.038;14.612;2024-03-23T08:20:13;97851.03;;;15.00;100.00
21902;BME280;11115;46.038;14.612;2024-03-23T08:22:43;97850.16;;;15.24;100.00
21902;BME280;11115;46.038;14.612;2024-03-23T08:25:11;97863.41;;;15.71;100.00
21902;BME280;11115;46.038;14.612;2024-03-23T08:27:44;97854.72;;;15.88;100.00
21902;BME280;11115;46.038;14.612;2024-03-23T08:30:14;97844.97;;;15.98;100.00
21902;BME280;11115;46.038;14.612;2024-03-23T08:32:49;97864.41;;;15.94;100.00
21902;BME280;11115;46.038;14.612;2024-03-23T08:35:16;97851.13;;;15.88;100.00
21902;BME280;11115;46.038;14.612;2024-03-23T08:37:45;97848.22;;;16.00;100.00
21902;BME280;11115;46.038;14.612;2024-03-23T08:40:15;97851.19;;;15.91;100.00
21902;BME280;11115;46.038;14.612;2024-03-23T08:42:45;97848.13;;;15.81;100.00
21902;BME280;11115;46.038;14.612;2024-03-23T08:45:12;97844.63;;;15.68;100.00
21902;BME280;11115;46.038;14.612;2024-03-23T08:47:40;97841.09;;;15.71;100.00
21902;BME280;11115;46.038;14.612;2024-03-23T08:50:08;97823.84;;;15.81;100.00
21902;BME280;11115;46.038;14.612;2024-03-23T08:52:38;97819.97;;;15.86;100.00
21902;BME280;11115;46.038;14.612;2024-03-23T08:55:05;97834.75;;;15.86;100.00
21902;BME280;11115;46.038;14.612;2024-03-23T08:57:37;97828.97;;;15.79;100.00
21902;BME280;11115;46.038;14.612;2024-03-23T09:00:05;97834.09;;;15.77;100.00
21902;BME280;11115;46.038;14.612;2024-03-23T09:02:38;97823.28;;;15.60;100.00
21902;BME280;11115;46.038;14.612;2024-03-23T09:05:07;97819.16;;;15.69;100.00
21902;BME280;11115;46.038;14.612;2024-03-23T09:07:40;97813.25;;;15.43;100.00
21902;BME280;11115;46.038;14.612;2024-03-23T09:10:07;97794.16;;;15.29;100.00
21902;BME280;11115;46.038;14.612;2024-03-23T09:12:44;97762.41;;;15.18;100.00
21902;BME280;11115;46.038;14.612;2024-03-23T09:15:17;97807.41;;;15.48;100.00
21902;BME280;11115;46.038;14.612;2024-03-23T09:17:46;97807.88;;;15.50;100.00
21902;BME280;11115;46.038;14.612;2024-03-23T09:20:13;97785.91;;;15.33;100.00
21902;BME280;11115;46.038;14.612;2024-03-23T09:22:40;97804.38;;;15.53;100.00
21902;BME280;11115;46.038;14.612;2024-03-23T09:25:21;97801.78;;;15.76;100.00
21902;BME280;11115;46.038;14.612;2024-03-23T09:27:49;97787.22;;;15.98;100.00
21902;BME280;11115;46.038;14.612;2024-03-23T09:30:19;97747.97;;;16.07;100.00
21902;BME280;11115;46.038;14.612;2024-03-23T09:32:46;97775.00;;;16.38;100.00
21902;BME280;11115;46.038;14.612;2024-03-23T09:35:22;97774.78;;;16.47;100.00
21902;BME280;11115;46.038;14.612;2024-03-23T09:37:48;97766.78;;;16.45;100.00
21902;BME280;11115;46.038;14.612;2024-03-23T09:40:18;97765.47;;;16.39;100.00
21902;BME280;11115;46.038;14.612;2024-03-23T09:42:49;97768.41;;;16.46;100.00
21902;BME280;11115;46.038;14.612;2024-03-23T09:45:21;97775.19;;;16.64;100.00
21902;BME280;11115;46.038;14.612;2024-03-23T09:47:48;97755.00;;;16.90;100.00
21902;BME280;11115;46.038;14.612;2024-03-23T09:50:20;97737.41;;;17.09;100.00
21902;BME280;11115;46.038;14.612;2024-03-23T09:52:48;97748.72;;;17.36;100.00
21902;BME280;11115;46.038;14.612;2024-03-23T09:55:17;97735.72;;;17.47;100.00
21902;BME280;11115;46.038;14.612;2024-03-23T09:57:45;97724.38;;;17.36;100.00
21902;BME280;11115;46.038;14.612;2024-03-23T10:00:19;97724.22;;;17.52;100.00
21902;BME280;11115;46.038;14.612;2024-03-23T10:02:47;97723.09;;;17.76;100.00
21902;BME280;11115;46.038;14.612;2024-03-23T10:05:22;97697.84;;;17.99;100.00
21902;BME280;11115;46.038;14.612;2024-03-23T10:07:50;97681.06;;;17.99;100.00
21902;BME280;11115;46.038;14.612;2024-03-23T10:10:19;97698.44;;;18.11;100.00
21902;BME280;11115;46.038;14.612;2024-03-23T10:12:52;97700.53;;;18.48;100.00
21902;BME280;11115;46.038;14.612;2024-03-23T10:15:24;97697.03;;;18.85;100.00
21902;BME280;11115;46.038;14.612;2024-03-23T10:17:54;97674.97;;;18.79;100.00
21902;BME280;11115;46.038;14.612;2024-03-23T10:20:22;97682.94;;;18.77;100.00
21902;BME280;11115;46.038;14.612;2024-03-23T10:22:50;97684.97;;;19.18;100.00
21902;BME280;11115;46.038;14.612;2024-03-23T10:25:22;97678.50;;;18.73;100.00
21902;BME280;11115;46.038;14.612;2024-03-23T10:27:59;97666.66;;;18.27;100.00
21902;BME280;11115;46.038;14.612;2024-03-23T10:30:28;97663.09;;;18.30;100.00
21902;BME280;11115;46.038;14.612;2024-03-23T10:33:09;97669.44;;;18.27;100.00
21902;BME280;11115;46.038;14.612;2024-03-23T10:35:39;97659.03;;;18.24;100.00
21902;BME280;11115;46.038;14.612;2024-03-23T10:38:21;97646.94;;;17.89;100.00
21902;BME280;11115;46.038;14.612;2024-03-23T10:40:49;97651.34;;;17.90;100.00
21902;BME280;11115;46.038;14.612;2024-03-23T10:43:19;97654.09;;;17.87;100.00
21902;BME280;11115;46.038;14.612;2024-03-23T10:45:51;97650.63;;;17.94;100.00
21902;BME280;11115;46.038;14.612;2024-03-23T10:48:24;97638.28;;;17.98;100.00
21902;BME280;11115;46.038;14.612;2024-03-23T10:50:53;97637.94;;;18.03;100.00
21902;BME280;11115;46.038;14.612;2024-03-23T10:53:26;97633.00;;;17.93;100.00
21902;BME280;11115;46.038;14.612;2024-03-23T10:55:57;97622.34;;;18.32;100.00
21902;BME280;11115;46.038;14.612;2024-03-23T10:58:48;97621.16;;;19.04;100.00
21902;BME280;11115;46.038;14.612;2024-03-23T11:01:17;97607.84;;;18.90;100.00
21902;BME280;11115;46.038;14.612;2024-03-23T11:03:47;97607.66;;;19.13;100.00
21902;BME280;11115;46.038;14.612;2024-03-23T11:06:36;97610.78;;;19.08;100.00
21902;BME280;11115;46.038;14.612;2024-03-23T11:09:38;97606.81;;;19.09;98.55
21902;BME280;11115;46.038;14.612;2024-03-23T11:15:12;97603.31;;;19.23;99.40
21902;BME280;11115;46.038;14.612;2024-03-23T11:17:41;97595.53;;;19.02;93.73
21902;BME280;11115;46.038;14.612;2024-03-23T11:20:11;97592.84;;;19.16;96.79
21902;BME280;11115;46.038;14.612;2024-03-23T11:22:44;97567.78;;;19.34;98.42
21902;BME280;11115;46.038;14.612;2024-03-23T11:25:22;97575.25;;;19.19;92.19
21902;BME280;11115;46.038;14.612;2024-03-23T11:27:54;97580.25;;;18.96;92.04
21902;BME280;11115;46.038;14.612;2024-03-23T11:30:27;97579.53;;;19.06;92.65
21902;BME280;11115;46.038;14.612;2024-03-23T11:32:57;97567.44;;;19.46;100.00
21902;BME280;11115;46.038;14.612;2024-03-23T11:35:32;97560.56;;;19.91;96.06
21902;BME280;11115;46.038;14.612;2024-03-23T11:38:10;97555.13;;;19.54;91.62
21902;BME280;11115;46.038;14.612;2024-03-23T11:40:42;97554.22;;;19.47;93.06
21902;BME280;11115;46.038;14.612;2024-03-23T11:43:18;97541.84;;;19.51;100.00
21902;BME280;11115;46.038;14.612;2024-03-23T11:45:52;97554.94;;;18.85;92.79
21902;BME280;11115;46.038;14.612;2024-03-23T11:48:23;97531.63;;;18.74;94.95
21902;BME280;11115;46.038;14.612;2024-03-23T11:50:57;97527.69;;;18.82;97.07
21902;BME280;11115;46.038;14.612;2024-03-23T11:53:25;97516.25;;;19.01;100.00
21902;BME280;11115;46.038;14.612;2024-03-23T11:55:56;97512.81;;;19.26;100.00
21902;BME280;11115;46.038;14.612;2024-03-23T11:58:25;97508.72;;;19.09;99.65
21902;BME280;11115;46.038;14.612;2024-03-23T12:00:57;97516.97;;;19.46;100.00
21902;BME280;11115;46.038;14.612;2024-03-23T12:03:26;97500.50;;;19.37;92.62
21902;BME280;11115;46.038;14.612;2024-03-23T12:05:59;97501.56;;;19.84;100.00
21902;BME280;11115;46.038;14.612;2024-03-23T12:08:31;97502.03;;;19.97;95.73
21902;BME280;11115;46.038;14.612;2024-03-23T12:11:13;97484.56;;;19.49;92.84
21902;BME280;11115;46.038;14.612;2024-03-23T12:13:43;97487.03;;;19.61;88.48
21902;BME280;11115;46.038;14.612;2024-03-23T12:16:18;97454.72;;;19.19;91.92
21902;BME280;11115;46.038;14.612;2024-03-23T12:18:48;97478.09;;;19.45;91.54
21902;BME280;11115;46.038;14.612;2024-03-23T12:21:21;97463.84;;;19.67;92.93
21902;BME280;11115;46.038;14.612;2024-03-23T12:23:48;97423.44;;;19.14;89.26
21902;BME280;11115;46.038;14.612;2024-03-23T12:26:16;97457.63;;;19.37;92.51
21902;BME280;11115;46.038;14.612;2024-03-23T12:28:50;97454.97;;;19.00;91.94
21902;BME280;11115;46.038;14.612;2024-03-23T12:31:21;97445.19;;;18.72;95.61
21902;BME280;11115;46.038;14.612;2024-03-23T12:33:51;97447.97;;;18.72;95.17
21902;BME280;11115;46.038;14.612;2024-03-23T12:36:22;97443.94;;;18.70;96.86
21902;BME280;11115;46.038;14.612;2024-03-23T12:38:51;97460.44;;;18.38;99.26
21902;BME280;11115;46.038;14.612;2024-03-23T12:41:26;97436.72;;;18.28;100.00
21902;BME280;11115;46.038;14.612;2024-03-23T12:43:57;97445.34;;;18.12;100.00
21902;BME280;11115;46.038;14.612;2024-03-23T12:46:27;97441.81;;;18.15;100.00
21902;BME280;11115;46.038;14.612;2024-03-23T12:48:54;97429.28;;;18.02;100.00
21902;BME280;11115;46.038;14.612;2024-03-23T12:51:28;97427.75;;;18.12;100.00
21902;BME280;11115;46.038;14.612;2024-03-23T12:54:06;97415.41;;;18.13;100.00
21902;BME280;11115;46.038;14.612;2024-03-23T12:56:38;97402.50;;;18.05;100.00
21902;BME280;11115;46.038;14.612;2024-03-23T12:59:06;97418.88;;;18.03;100.00
21902;BME280;11115;46.038;14.612;2024-03-23T13:01:50;97417.31;;;18.05;100.00
21902;BME280;11115;46.038;14.612;2024-03-23T13:04:17;97420.75;;;17.92;100.00
21902;BME280;11115;46.038;14.612;2024-03-23T13:06:49;97419.00;;;17.76;100.00
21902;BME280;11115;46.038;14.612;2024-03-23T13:09:17;97418.50;;;17.71;100.00
21902;BME280;11115;46.038;14.612;2024-03-23T13:11:50;97416.59;;;17.75;100.00
21902;BME280;11115;46.038;14.612;2024-03-23T13:14:24;97407.63;;;17.66;100.00
21902;BME280;11115;46.038;14.612;2024-03-23T13:16:53;97415.97;;;17.58;100.00
21902;BME280;11115;46.038;14.612;2024-03-23T13:19:19;97416.72;;;17.55;100.00
21902;BME280;11115;46.038;14.612;2024-03-23T13:22:00;97410.19;;;17.44;100.00
21902;BME280;11115;46.038;14.612;2024-03-23T13:24:33;97402.97;;;17.43;100.00
21902;BME280;11115;46.038;14.612;2024-03-23T13:27:03;97412.16;;;17.44;100.00
21902;BME280;11115;46.038;14.612;2024-03-23T13:29:39;97414.16;;;17.43;100.00
21902;BME280;11115;46.038;14.612;2024-03-23T13:32:08;97412.78;;;17.30;100.00
21902;BME280;11115;46.038;14.612;2024-03-23T13:34:35;97406.34;;;17.26;100.00
21902;BME280;11115;46.038;14.612;2024-03-23T13:37:03;97406.72;;;17.24;100.00
21902;BME280;11115;46.038;14.612;2024-03-23T13:39:33;97400.34;;;17.24;100.00
21902;BME280;11115;46.038;14.612;2024-03-23T13:42:00;97393.75;;;17.39;100.00
21902;BME280;11115;46.038;14.612;2024-03-23T13:44:38;97393.44;;;17.48;100.00
21902;BME280;11115;46.038;14.612;2024-03-23T13:47:08;97401.38;;;17.42;100.00
21902;BME280;11115;46.038;14.612;2024-03-23T13:49:39;97383.22;;;17.29;100.00
21902;BME280;11115;46.038;14.612;2024-03-23T13:52:07;97374.16;;;17.36;100.00
21902;BME280;11115;46.038;14.612;2024-03-23T13:54:47;97375.69;;;17.33;100.00
21902;BME280;11115;46.038;14.612;2024-03-23T13:57:15;97381.47;;;17.47;100.00
21902;BME280;11115;46.038;14.612;2024-03-23T13:59:49;97354.88;;;17.30;100.00
21902;BME280;11115;46.038;14.612;2024-03-23T14:02:19;97379.13;;;17.53;100.00